Time;durP1;ratioP1;P1;durP2;ratioP2;P2;SDS_P1;SDS_P2;PMS_P1;PMS_P2;Temp;Humidity;BMP_temperature;BMP_pressure;BME280_temperature;BME280_humidity;BME280_pressure;Samples;Min_cycle;Max_cycle;Signal;HPM_P1;HPM_P2
2023/05/03 00:00:26;;;;;;;;;;;;;;;4.45;100.00;102872.72;4933264;28;19926;-73
2023/05/03 00:02:52;;;;;;;;;;;;;;;4.44;100.00;102866.50;4938459;28;20259;-73
2023/05/03 00:05:18;;;;;;;;;;;;;;;4.41;100.00;102868.34;4931091;28;20310;-73
2023/05/03 00:07:43;;;;;;;;;;;;;;;4.36;100.00;102871.09;4939526;28;19918;-73
2023/05/03 00:10:11;;;;;;;;;;;;;;;4.30;100.00;102865.91;4934899;28;19922;-73
2023/05/03 00:12:40;;;;;;;;;;;;;;;4.30;100.00;102863.25;4923893;28;19932;-73
2023/05/03 00:15:05;;;;;;;;;;;;;;;4.31;100.00;102872.97;4922164;29;19926;-73
2023/05/03 00:17:31;;;;;;;;;;;;;;;4.34;100.00;102870.25;4936923;28;19970;-73
2023/05/03 00:19:56;;;;;;;;;;;;;;;4.35;100.00;102864.91;4933738;28;20014;-73
2023/05/03 00:22:21;;;;;;;;;;;;;;;4.37;100.00;102862.19;4937633;28;19922;-73
2023/05/03 00:24:48;;;;;;;;;;;;;;;4.35;100.00;102864.03;4937085;28;19930;-73
2023/05/03 00:27:13;;;;;;;;;;;;;;;4.36;100.00;102863.13;4940948;28;19967;-73
2023/05/03 00:29:38;;;;;;;;;;;;;;;4.30;100.00;102855.25;4936759;28;19925;-73
2023/05/03 00:32:04;;;;;;;;;;;;;;;4.23;100.00;102853.63;4935050;28;19929;-73
2023/05/03 00:34:29;;;;;;;;;;;;;;;4.26;100.00;102853.56;4925139;29;19934;-73
2023/05/03 00:36:54;;;;;;;;;;;;;;;4.26;100.00;102859.75;4940312;28;19933;-72
2023/05/03 00:39:19;;;;;;;;;;;;;;;4.22;100.00;102854.53;4941349;28;19930;-73
2023/05/03 00:41:44;;;;;;;;;;;;;;;4.24;100.00;102850.06;4939610;28;20632;-73
2023/05/03 00:44:10;;;;;;;;;;;;;;;4.27;100.00;102860.63;4936164;28;20405;-73
2023/05/03 00:46:35;;;;;;;;;;;;;;;4.22;100.00;102866.06;4933086;28;20563;-73
2023/05/03 00:49:00;;;;;;;;;;;;;;;4.25;100.00;102871.28;4933603;28;19969;-73
2023/05/03 00:51:26;;;;;;;;;;;;;;;4.22;100.00;102870.47;4909051;29;19922;-73
2023/05/03 00:53:51;;;;;;;;;;;;;;;4.11;100.00;102871.53;4924370;29;20404;-73
2023/05/03 00:56:22;;;;;;;;;;;;;;;4.11;100.00;102873.34;4940209;28;19925;-73
2023/05/03 00:58:47;;;;;;;;;;;;;;;4.09;100.00;102870.72;4920773;29;19962;-73
2023/05/03 01:01:14;;;;;;;;;;;;;;;4.12;100.00;102870.63;4935710;28;20393;-73
2023/05/03 01:03:40;;;;;;;;;;;;;;;4.06;100.00;102873.44;4938293;28;19933;-72
2023/05/03 01:06:05;;;;;;;;;;;;;;;4.11;100.00;102878.66;4938698;28;19926;-73
2023/05/03 01:08:32;;;;;;;;;;;;;;;4.04;100.00;102870.78;4931037;28;20373;-73
2023/05/03 01:11:01;;;;;;;;;;;;;;;3.96;100.00;102875.38;4929243;28;20050;-73
2023/05/03 01:13:27;;;;;;;;;;;;;;;3.75;100.00;102865.97;4920599;29;19922;-73
2023/05/03 01:15:59;;;;;;;;;;;;;;;3.45;100.00;102871.72;4938877;28;19944;-73
2023/05/03 01:18:27;;;;;;;;;;;;;;;3.34;100.00;102873.69;4934793;28;19922;-73
2023/05/03 01:20:52;;;;;;;;;;;;;;;3.30;100.00;102872.88;4935143;28;20305;-73
2023/05/03 01:23:23;;;;;;;;;;;;;;;3.33;100.00;102871.03;4938039;28;19923;-73
2023/05/03 01:25:50;;;;;;;;;;;;;;;3.34;100.00;102873.69;4933921;28;19922;-73
2023/05/03 01:28:15;;;;;;;;;;;;;;;3.35;100.00;102869.22;4932140;28;19966;-73
2023/05/03 01:30:40;;;;;;;;;;;;;;;3.29;100.00;102880.81;4935503;28;20013;-73
2023/05/03 01:33:09;;;;;;;;;;;;;;;3.24;100.00;102874.69;4941807;28;19988;-73
2023/05/03 01:35:41;;;;;;;;;;;;;;;3.20;100.00;102883.59;4939713;28;19926;-73
2023/05/03 01:38:06;;;;;;;;;;;;;;;3.23;100.00;102878.25;4927083;28;20009;-72
2023/05/03 01:40:32;;;;;;;;;;;;;;;3.20;100.00;102881.84;4936985;28;19929;-73
2023/05/03 01:42:57;;;;;;;;;;;;;;;3.17;100.00;102886.34;4938686;28;20202;-73
2023/05/03 01:45:22;;;;;;;;;;;;;;;3.14;100.00;102885.47;4930499;28;19929;-72
2023/05/03 01:47:47;;;;;;;;;;;;;;;3.09;100.00;102878.44;4938745;28;19923;-73
2023/05/03 01:50:13;;;;;;;;;;;;;;;3.03;100.00;102883.88;4930772;28;19965;-73
2023/05/03 01:52:38;;;;;;;;;;;;;;;2.93;100.00;102878.66;4936165;28;19957;-73
2023/05/03 01:55:03;;;;;;;;;;;;;;;2.90;100.00;102878.69;4937637;28;19922;-73
2023/05/03 01:57:29;;;;;;;;;;;;;;;2.90;100.00;102875.19;4932475;28;19979;-73
2023/05/03 01:59:54;;;;;;;;;;;;;;;2.85;100.00;102873.47;4936731;28;19922;-73
2023/05/03 02:02:19;;;;;;;;;;;;;;;2.67;100.00;102879.88;4933602;28;20997;-73
2023/05/03 02:04:44;;;;;;;;;;;;;;;2.52;100.00;102880.03;4937389;28;19932;-73
2023/05/03 02:07:10;;;;;;;;;;;;;;;2.35;100.00;102889.03;4934765;28;20329;-73
2023/05/03 02:09:35;;;;;;;;;;;;;;;2.25;100.00;102882.97;4936884;28;19926;-73
2023/05/03 02:12:00;;;;;;;;;;;;;;;2.32;100.00;102882.91;4934911;28;19922;-73
2023/05/03 02:14:25;;;;;;;;;;;;;;;2.32;100.00;102878.47;4931030;28;20389;-73
2023/05/03 02:16:53;;;;;;;;;;;;;;;2.51;100.00;102886.25;4935377;28;20453;-73
2023/05/03 02:19:18;;;;;;;;;;;;;;;2.62;100.00;102883.47;4934467;28;19922;-73
2023/05/03 02:21:44;;;;;;;;;;;;;;;2.70;100.00;102882.47;4931405;28;20373;-73
2023/05/03 02:24:09;;;;;;;;;;;;;;;2.78;100.00;102885.03;4936374;28;19933;-73
2023/05/03 02:26:34;;;;;;;;;;;;;;;2.85;100.00;102886.72;4933269;28;19989;-73
2023/05/03 02:29:00;;;;;;;;;;;;;;;2.87;100.00;102878.72;4930691;28;19922;-73
2023/05/03 02:31:25;;;;;;;;;;;;;;;2.83;100.00;102879.66;4934155;28;20325;-73
2023/05/03 02:33:51;;;;;;;;;;;;;;;2.83;100.00;102879.66;4934154;28;19965;-73
2023/05/03 02:36:16;;;;;;;;;;;;;;;2.82;100.00;102877.91;4936063;28;19945;-73
2023/05/03 02:38:41;;;;;;;;;;;;;;;2.81;100.00;102873.50;4934592;28;19922;-73
2023/05/03 02:41:06;;;;;;;;;;;;;;;2.78;100.00;102870.91;4932077;28;19966;-73
2023/05/03 02:43:32;;;;;;;;;;;;;;;2.85;100.00;102870.81;4932825;28;19927;-73
2023/05/03 02:45:57;;;;;;;;;;;;;;;2.87;100.00;102860.16;4930453;28;19929;-73
2023/05/03 02:48:22;;;;;;;;;;;;;;;2.90;100.00;102859.25;4933471;28;19977;-73
2023/05/03 02:50:47;;;;;;;;;;;;;;;2.91;100.00;102853.06;4935397;28;19985;-73
2023/05/03 02:53:12;;;;;;;;;;;;;;;2.87;100.00;102854.00;4934174;28;19951;-73
2023/05/03 02:55:38;;;;;;;;;;;;;;;2.90;100.00;102851.31;4935304;28;19929;-73
2023/05/03 02:58:03;;;;;;;;;;;;;;;2.97;100.00;102842.34;4934767;28;19922;-73
2023/05/03 03:00:29;;;;;;;;;;;;;;;2.96;100.00;102829.97;4929452;28;20173;-73
2023/05/03 03:02:54;;;;;;;;;;;;;;;2.95;100.00;102831.75;4936076;28;19922;-73
2023/05/03 03:05:19;;;;;;;;;;;;;;;2.96;100.00;102830.84;4934499;28;20583;-73
2023/05/03 03:07:44;;;;;;;;;;;;;;;2.81;100.00;102820.44;4939467;28;20350;-73
2023/05/03 03:10:10;;;;;;;;;;;;;;;2.80;100.00;102822.22;4934929;28;19933;-72
2023/05/03 03:12:35;;;;;;;;;;;;;;;2.84;100.00;102818.63;4934220;28;20425;-73
2023/05/03 03:15:00;;;;;;;;;;;;;;;2.90;100.00;102822.97;4934051;28;20008;-73
2023/05/03 03:17:26;;;;;;;;;;;;;;;2.95;100.00;102821.16;4927088;28;19923;-72
2023/05/03 03:19:51;;;;;;;;;;;;;;;3.00;100.00;102837.00;4932936;28;20017;-73
2023/05/03 03:22:16;;;;;;;;;;;;;;;3.07;100.00;102830.72;4927884;28;20370;-73
2023/05/03 03:24:41;;;;;;;;;;;;;;;2.99;100.00;102838.78;4932934;28;20390;-73
2023/05/03 03:27:07;;;;;;;;;;;;;;;2.93;100.00;102838.84;4935865;28;20074;-73
2023/05/03 03:29:32;;;;;;;;;;;;;;;2.88;100.00;102845.13;4931204;28;19972;-73
2023/05/03 03:31:57;;;;;;;;;;;;;;;2.85;100.00;102848.69;4940454;28;20009;-73
2023/05/03 03:34:23;;;;;;;;;;;;;;;2.85;100.00;102851.34;4931363;28;20380;-73
2023/05/03 03:36:48;;;;;;;;;;;;;;;2.78;100.00;102849.69;4939370;28;20285;-73
2023/05/03 03:39:13;;;;;;;;;;;;;;;2.78;100.00;102857.66;4933279;28;20018;-73
2023/05/03 03:41:38;;;;;;;;;;;;;;;2.75;100.00;102852.38;4932496;28;20312;-73
2023/05/03 03:44:04;;;;;;;;;;;;;;;2.76;100.00;102851.47;4934284;28;19933;-73
2023/05/03 03:46:29;;;;;;;;;;;;;;;2.75;100.00;102842.63;4929910;28;20306;-73
2023/05/03 03:48:54;;;;;;;;;;;;;;;2.57;100.00;102848.16;4936862;28;20026;-73
2023/05/03 03:51:19;;;;;;;;;;;;;;;2.49;100.00;102848.25;4927769;28;19945;-73
2023/05/03 03:53:45;;;;;;;;;;;;;;;2.47;100.00;102836.78;4928916;28;20309;-72
2023/05/03 03:56:10;;;;;;;;;;;;;;;2.40;100.00;102834.22;4927982;28;20384;-72
2023/05/03 03:58:35;;;;;;;;;;;;;;;2.45;100.00;102839.44;4928586;28;19962;-74
2023/05/03 04:01:00;;;;;;;;;;;;;;;2.47;100.00;102832.34;4935292;28;19922;-73
2023/05/03 04:03:26;;;;;;;;;;;;;;;2.43;100.00;102840.38;4931764;28;20024;-74
2023/05/03 04:05:51;;;;;;;;;;;;;;;2.27;100.00;102837.00;4938898;28;19960;-73
2023/05/03 04:08:16;;;;;;;;;;;;;;;2.32;100.00;102841.34;4941243;28;20005;-74
2023/05/03 04:10:41;;;;;;;;;;;;;;;2.20;100.00;102839.72;4939277;28;19961;-73
2023/05/03 04:13:07;;;;;;;;;;;;;;;2.14;100.00;102846.84;4939136;28;20396;-73
2023/05/03 04:15:32;;;;;;;;;;;;;;;2.02;100.00;102854.03;4940487;28;19960;-73
2023/05/03 04:17:57;;;;;;;;;;;;;;;2.06;100.00;102858.41;4926389;29;19922;-73
2023/05/03 04:20:23;;;;;;;;;;;;;;;2.18;100.00;102859.19;4937448;28;19974;-73
2023/05/03 04:22:48;;;;;;;;;;;;;;;2.18;100.00;102868.00;4937024;28;20425;-73
2023/05/03 04:25:15;;;;;;;;;;;;;;;2.22;100.00;102858.28;4937192;28;19978;-73
2023/05/03 04:27:41;;;;;;;;;;;;;;;2.25;100.00;102859.09;4936015;28;19923;-72
2023/05/03 04:30:07;;;;;;;;;;;;;;;2.36;100.00;102864.28;4937698;28;19929;-73
2023/05/03 04:32:36;;;;;;;;;;;;;;;2.36;100.00;102863.44;4933028;28;19966;-73
2023/05/03 04:35:08;;;;;;;;;;;;;;;2.42;100.00;102865.13;4938518;28;19926;-73
2023/05/03 04:37:34;;;;;;;;;;;;;;;2.45;100.00;102860.66;4919749;28;20366;-72
2023/05/03 04:39:59;;;;;;;;;;;;;;;2.54;100.00;102867.63;4940554;28;19922;-73
2023/05/03 04:42:24;;;;;;;;;;;;;;;2.52;100.00;102875.63;4917856;28;19926;-73
2023/05/03 04:44:49;;;;;;;;;;;;;;;2.41;100.00;102872.19;4936379;28;19914;-73
2023/05/03 04:47:15;;;;;;;;;;;;;;;2.42;100.00;102867.78;4934112;28;20437;-72
2023/05/03 04:49:40;;;;;;;;;;;;;;;2.50;100.00;102876.53;4935758;28;19934;-72
2023/05/03 04:52:05;;;;;;;;;;;;;;;2.51;100.00;102889.75;4938567;28;19957;-73
2023/05/03 04:54:30;;;;;;;;;;;;;;;2.52;100.00;102886.22;4937630;28;20010;-73
2023/05/03 04:56:56;;;;;;;;;;;;;;;2.48;100.00;102883.63;4937316;28;20456;-73
2023/05/03 04:59:21;;;;;;;;;;;;;;;2.65;100.00;102896.72;4936155;28;19922;-73
2023/05/03 05:01:47;;;;;;;;;;;;;;;2.76;100.00;102905.41;4921307;28;19934;-73
2023/05/03 05:04:12;;;;;;;;;;;;;;;2.88;100.00;102906.16;4933523;28;20616;-72
2023/05/03 05:06:37;;;;;;;;;;;;;;;2.93;100.00;102913.16;4935939;28;19923;-73
2023/05/03 05:09:06;;;;;;;;;;;;;;;3.01;100.00;102915.72;4935227;28;19977;-73
2023/05/03 05:11:31;;;;;;;;;;;;;;;3.06;100.00;102920.94;4935093;28;19930;-72
2023/05/03 05:13:56;;;;;;;;;;;;;;;3.24;100.00;102915.41;4944366;28;19922;-73
2023/05/03 05:16:21;;;;;;;;;;;;;;;3.37;100.00;102923.19;4921485;28;19923;-73
2023/05/03 05:18:47;;;;;;;;;;;;;;;3.50;100.00;102919.50;4937528;28;20345;-73
2023/05/03 05:21:13;;;;;;;;;;;;;;;3.65;100.00;102925.47;4903939;28;20353;-72
2023/05/03 05:23:38;;;;;;;;;;;;;;;3.79;100.00;102926.13;4944623;28;19943;-73
2023/05/03 05:26:04;;;;;;;;;;;;;;;3.91;100.00;102930.38;4920944;28;19923;-73
2023/05/03 05:28:29;;;;;;;;;;;;;;;4.04;100.00;102929.25;4933789;28;19930;-73
2023/05/03 05:30:54;;;;;;;;;;;;;;;4.21;100.00;102930.78;4930648;28;19935;-73
2023/05/03 05:33:19;;;;;;;;;;;;;;;4.33;100.00;102922.56;4939506;28;19957;-73
2023/05/03 05:35:46;;;;;;;;;;;;;;;4.45;100.00;102932.09;4936923;28;19933;-73
2023/05/03 05:38:11;;;;;;;;;;;;;;;4.64;100.00;102924.66;4937593;28;20365;-73
2023/05/03 05:40:37;;;;;;;;;;;;;;;4.80;100.00;102927.00;4936329;28;19930;-74
2023/05/03 05:43:02;;;;;;;;;;;;;;;4.89;100.00;102926.81;4932450;28;19949;-73
2023/05/03 05:45:27;;;;;;;;;;;;;;;5.09;100.00;102929.06;4918956;28;20349;-73
2023/05/03 05:47:53;;;;;;;;;;;;;;;5.25;100.00;102929.63;4937221;28;20364;-73
2023/05/03 05:50:18;;;;;;;;;;;;;;;5.35;100.00;102934.72;4918242;29;20014;-73
2023/05/03 05:52:43;;;;;;;;;;;;;;;5.55;100.00;102936.97;4937801;28;19926;-73
2023/05/03 05:55:12;;;;;;;;;;;;;;;5.70;100.00;102939.25;4936007;28;19922;-74
2023/05/03 05:57:37;;;;;;;;;;;;;;;5.81;100.00;102940.78;4933215;28;20009;-73
2023/05/03 06:00:08;;;;;;;;;;;;;;;5.88;100.00;102937.06;4936376;28;19924;-74
2023/05/03 06:02:33;;;;;;;;;;;;;;;6.01;100.00;102940.34;4932734;28;19927;-73
2023/05/03 06:04:59;;;;;;;;;;;;;;;6.12;100.00;102935.59;4935433;28;19923;-73
2023/05/03 06:07:25;;;;;;;;;;;;;;;6.30;100.00;102930.72;4931041;28;20548;-73
2023/05/03 06:09:50;;;;;;;;;;;;;;;6.42;100.00;102934.88;4936008;28;19922;-73
2023/05/03 06:12:15;;;;;;;;;;;;;;;6.59;100.00;102929.94;4934236;28;20350;-73
2023/05/03 06:14:40;;;;;;;;;;;;;;;6.78;100.00;102932.09;4937358;28;19929;-73
2023/05/03 06:17:06;;;;;;;;;;;;;;;6.86;100.00;102927.41;4936435;28;19934;-73
2023/05/03 06:19:31;;;;;;;;;;;;;;;7.05;100.00;102927.75;4918939;29;19945;-73
2023/05/03 06:21:56;;;;;;;;;;;;;;;7.03;100.00;102920.69;4934288;28;19972;-73
2023/05/03 06:24:21;;;;;;;;;;;;;;;7.14;100.00;102926.59;4903905;29;20020;-73
2023/05/03 06:26:47;;;;;;;;;;;;;;;7.20;100.00;102923.75;4934111;28;19923;-73
2023/05/03 06:29:12;;;;;;;;;;;;;;;7.41;100.00;102917.81;4931293;28;20314;-73
2023/05/03 06:31:37;;;;;;;;;;;;;;;7.50;100.00;102925.50;4941626;28;19964;-73
2023/05/03 06:34:03;;;;;;;;;;;;;;;7.48;100.00;102922.91;4936074;28;20300;-74
2023/05/03 06:36:29;;;;;;;;;;;;;;;7.66;100.00;102917.88;4937361;28;20005;-73
2023/05/03 06:38:55;;;;;;;;;;;;;;;7.90;100.00;102913.53;4936089;28;19969;-73
2023/05/03 06:41:20;;;;;;;;;;;;;;;8.10;100.00;102918.19;4936077;28;19926;-73
2023/05/03 06:43:45;;;;;;;;;;;;;;;8.11;100.00;102917.28;4935173;28;19969;-73
2023/05/03 06:46:11;;;;;;;;;;;;;;;8.08;100.00;102909.34;4938234;28;20400;-73
2023/05/03 06:48:37;;;;;;;;;;;;;;;8.08;100.00;102908.50;4931085;28;19964;-73
2023/05/03 06:51:02;;;;;;;;;;;;;;;8.13;100.00;102914.56;4935082;28;20017;-73
2023/05/03 06:53:27;;;;;;;;;;;;;;;8.35;100.00;102905.78;4933088;28;19929;-73
2023/05/03 06:55:53;;;;;;;;;;;;;;;8.65;100.00;102900.28;4932994;28;20370;-73
2023/05/03 06:58:18;;;;;;;;;;;;;;;8.55;100.00;102900.63;4914921;28;19922;-73
2023/05/03 07:00:43;;;;;;;;;;;;;;;8.59;100.00;102898.72;4934764;28;20730;-73
2023/05/03 07:03:08;;;;;;;;;;;;;;;8.49;100.00;102898.16;4934158;28;20451;-73
2023/05/03 07:05:34;;;;;;;;;;;;;;;8.66;100.00;102902.03;4933163;28;20475;-73
2023/05/03 07:07:59;;;;;;;;;;;;;;;8.80;100.00;102901.53;4916603;28;19929;-73
2023/05/03 07:10:25;;;;;;;;;;;;;;;9.12;100.00;102894.94;4935998;28;19930;-73
2023/05/03 07:12:50;;;;;;;;;;;;;;;9.39;100.00;102904.66;4937002;28;19923;-73
2023/05/03 07:15:15;;;;;;;;;;;;;;;9.14;100.00;102905.56;4931609;28;19968;-73
2023/05/03 07:17:40;;;;;;;;;;;;;;;9.33;100.00;102903.06;4934398;28;20241;-73
2023/05/03 07:20:06;;;;;;;;;;;;;;;9.24;100.00;102898.94;4933087;28;20322;-73
2023/05/03 07:22:31;;;;;;;;;;;;;;;9.54;100.00;102900.44;4933036;28;20433;-74
2023/05/03 07:24:58;;;;;;;;;;;;;;;9.66;100.00;102905.31;4938563;28;19973;-73
2023/05/03 07:27:23;;;;;;;;;;;;;;;9.63;100.00;102905.44;4928680;28;19929;-74
2023/05/03 07:29:48;;;;;;;;;;;;;;;9.63;100.00;102904.59;4933742;28;19923;-73
2023/05/03 07:32:14;;;;;;;;;;;;;;;9.47;100.00;102907.88;4940729;28;20281;-73
2023/05/03 07:34:39;;;;;;;;;;;;;;;9.86;99.49;102907.19;4932556;28;19922;-73
2023/05/03 07:37:04;;;;;;;;;;;;;;;9.97;100.00;102895.13;4930625;28;19929;-73
2023/05/03 07:39:30;;;;;;;;;;;;;;;10.34;100.00;102901.59;4936517;28;19929;-73
2023/05/03 07:41:55;;;;;;;;;;;;;;;10.65;100.00;102884.16;4936443;28;19930;-73
2023/05/03 07:44:20;;;;;;;;;;;;;;;10.22;86.58;102894.94;4937289;28;19926;-73
2023/05/03 07:46:46;;;;;;;;;;;;;;;10.34;84.28;102896.22;4936163;28;19926;-74
2023/05/03 07:49:11;;;;;;;;;;;;;;;10.40;84.10;102876.31;4937468;28;19923;-73
2023/05/03 07:51:37;;;;;;;;;;;;;;;9.99;83.79;102882.50;4931250;28;20359;-73
2023/05/03 07:54:03;;;;;;;;;;;;;;;10.09;84.62;102882.97;4950303;28;20337;-73
2023/05/03 07:56:28;;;;;;;;;;;;;;;10.21;86.53;102874.41;4933346;28;19922;-74
2023/05/03 07:58:53;;;;;;;;;;;;;;;10.59;77.67;102861.13;4938381;28;19929;-75
2023/05/03 08:01:19;;;;;;;;;;;;;;;10.57;76.62;102856.75;4939961;28;20034;-73
2023/05/03 08:03:44;;;;;;;;;;;;;;;10.84;79.48;102853.72;4938132;28;19927;-74
2023/05/03 08:06:10;;;;;;;;;;;;;;;10.93;76.89;102853.31;4937844;28;19961;-76
2023/05/03 08:08:35;;;;;;;;;;;;;;;10.80;75.98;102848.50;4937886;28;19977;-73
2023/05/03 08:11:00;;;;;;;;;;;;;;;11.05;76.93;102851.84;4941206;28;20161;-74
2023/05/03 08:13:25;;;;;;;;;;;;;;;10.91;80.50;102849.81;4938040;28;19970;-74
2023/05/03 08:15:51;;;;;;;;;;;;;;;11.28;78.71;102848.03;4936226;28;19929;-74
2023/05/03 08:18:16;;;;;;;;;;;;;;;11.05;74.15;102852.72;4937293;28;19930;-75
2023/05/03 08:20:42;;;;;;;;;;;;;;;10.82;73.85;102855.63;4936587;28;20369;-74
2023/05/03 08:23:07;;;;;;;;;;;;;;;11.50;80.18;102847.00;4939659;28;20313;-73
2023/05/03 08:25:33;;;;;;;;;;;;;;;11.21;74.76;102850.16;4932033;29;19922;-73
2023/05/03 08:27:58;;;;;;;;;;;;;;;10.97;71.87;102841.47;4935349;29;20025;-73
2023/05/03 08:30:24;;;;;;;;;;;;;;;10.75;72.17;102855.88;4930469;29;19922;-76
2023/05/03 08:32:50;;;;;;;;;;;;;;;11.10;75.32;102847.13;4939145;28;20345;-76
2023/05/03 08:35:15;;;;;;;;;;;;;;;11.11;70.64;102848.88;4935638;28;20377;-74
2023/05/03 08:37:41;;;;;;;;;;;;;;;11.65;68.88;102838.16;4938546;28;19928;-74
2023/05/03 08:40:08;;;;;;;;;;;;;;;11.58;72.93;102846.59;4936878;29;19929;-73
2023/05/03 08:42:33;;;;;;;;;;;;;;;11.23;70.65;102850.97;4933350;28;19993;-76
2023/05/03 08:44:58;;;;;;;;;;;;;;;11.66;70.35;102852.47;4936583;29;19923;-73
2023/05/03 08:47:24;;;;;;;;;;;;;;;12.04;67.01;102846.13;4933605;28;19958;-75
2023/05/03 08:49:49;;;;;;;;;;;;;;;12.40;71.71;102840.59;4935367;28;20025;-73
2023/05/03 08:52:19;;;;;;;;;;;;;;;12.66;65.27;102832.03;4939759;28;19929;-73
2023/05/03 08:54:45;;;;;;;;;;;;;;;12.62;65.62;102833.16;4935879;28;19970;-74
2023/05/03 08:57:12;;;;;;;;;;;;;;;12.22;66.10;102818.22;4931930;28;20102;-75
2023/05/03 08:59:52;;;;;;;;;;;;;;;12.64;63.87;102832.13;4931504;28;20369;-74
2023/05/03 09:02:17;;;;;;;;;;;;;;;12.64;63.69;102824.06;4934623;28;20025;-73
2023/05/03 09:04:43;;;;;;;;;;;;;;;12.57;69.15;102820.84;4933126;28;19927;-74
2023/05/03 09:07:08;;;;;;;;;;;;;;;12.52;65.86;102822.91;4938456;28;19978;-72
2023/05/03 09:09:34;;;;;;;;;;;;;;;12.96;64.62;102825.91;4937386;28;19926;-73
2023/05/03 09:12:00;;;;;;;;;;;;;;;12.90;61.83;102827.97;4936428;28;19927;-73
2023/05/03 09:14:25;;;;;;;;;;;;;;;12.45;64.98;102826.88;4934759;28;19922;-74
2023/05/03 09:16:50;;;;;;;;;;;;;;;12.78;63.84;102835.88;4934393;28;20258;-73
2023/05/03 09:19:15;;;;;;;;;;;;;;;12.89;65.78;102838.88;4936941;28;19927;-73
2023/05/03 09:21:42;;;;;;;;;;;;;;;12.99;61.77;102847.31;4934429;28;19930;-74
2023/05/03 09:24:14;;;;;;;;;;;;;;;12.97;62.09;102847.41;4932768;28;19930;-73
2023/05/03 09:26:40;;;;;;;;;;;;;;;13.25;63.84;102847.66;4938927;28;20349;-75
2023/05/03 09:29:05;;;;;;;;;;;;;;;13.20;62.48;102842.53;4932652;28;20564;-73
2023/05/03 09:31:30;;;;;;;;;;;;;;;13.31;63.72;102845.47;4936336;28;19922;-73
2023/05/03 09:33:56;;;;;;;;;;;;;;;13.49;60.89;102846.25;4921033;29;19930;-73
2023/05/03 09:36:21;;;;;;;;;;;;;;;13.78;61.62;102846.38;4938492;28;19973;-74
2023/05/03 09:38:46;;;;;;;;;;;;;;;14.00;66.53;102836.97;4921732;28;20474;-73
2023/05/03 09:41:12;;;;;;;;;;;;;;;14.00;59.86;102826.16;4936520;28;20432;-73
2023/05/03 09:43:46;;;;;;;;;;;;;;;14.17;58.72;102825.13;4935462;28;20005;-73
2023/05/03 09:46:12;;;;;;;;;;;;;;;13.97;60.23;102833.59;4936786;28;19922;-74
2023/05/03 09:48:37;;;;;;;;;;;;;;;14.10;58.57;102837.28;4933875;28;19929;-74
2023/05/03 09:51:04;;;;;;;;;;;;;;;14.06;58.06;102835.72;4935690;28;19941;-77
2023/05/03 09:53:29;;;;;;;;;;;;;;;14.40;61.90;102821.03;4904664;29;19922;-74
2023/05/03 09:55:55;;;;;;;;;;;;;;;14.13;56.33;102818.19;4937175;28;19929;-73
2023/05/03 09:58:20;;;;;;;;;;;;;;;14.35;55.54;102812.31;4936067;28;20366;-75
2023/05/03 10:00:47;;;;;;;;;;;;;;;14.93;59.06;102816.84;4936748;28;19922;-73
2023/05/03 10:03:17;;;;;;;;;;;;;;;15.27;59.83;102815.47;4935864;28;19926;-73
2023/05/03 10:05:46;;;;;;;;;;;;;;;15.64;60.83;102805.84;4935370;29;20274;-74
2023/05/03 10:08:12;;;;;;;;;;;;;;;15.86;55.39;102816.97;4946100;28;19922;-73
2023/05/03 10:10:37;;;;;;;;;;;;;;;16.15;50.05;102821.34;4932106;28;19961;-75
2023/05/03 10:13:02;;;;;;;;;;;;;;;15.62;53.78;102824.03;4918693;29;19989;-73
2023/05/03 10:15:27;;;;;;;;;;;;;;;15.70;54.25;102817.13;4919830;29;19922;-74
2023/05/03 10:17:53;;;;;;;;;;;;;;;16.39;54.55;102804.31;4937208;28;19973;-73
2023/05/03 10:20:30;;;;;;;;;;;;;;;17.00;58.24;102814.41;4932921;28;20389;-73
2023/05/03 10:23:02;;;;;;;;;;;;;;;15.67;49.92;102800.22;4936885;28;19922;-76
2023/05/03 10:25:27;;;;;;;;;;;;;;;16.21;51.25;102810.06;4934643;28;20543;-73
2023/05/03 10:27:53;;;;;;;;;;;;;;;16.15;51.36;102803.22;4933633;28;20342;-73
2023/05/03 10:30:24;;;;;;;;;;;;;;;15.85;53.37;102809.78;4932874;29;19922;-75
2023/05/03 10:32:50;;;;;;;;;;;;;;;15.92;54.40;102810.25;4931106;28;20289;-73
2023/05/03 10:35:15;;;;;;;;;;;;;;;16.53;50.17;102808.75;4936732;29;20205;-73
2023/05/03 10:37:41;;;;;;;;;;;;;;;16.88;51.10;102814.31;4937574;28;19929;-74
2023/05/03 10:40:06;;;;;;;;;;;;;;;17.12;52.90;102809.91;4936344;28;20289;-75
2023/05/03 10:42:32;;;;;;;;;;;;;;;17.18;51.52;102804.91;4931615;28;20370;-73
2023/05/03 10:44:59;;;;;;;;;;;;;;;17.83;50.35;102812.69;4937473;28;19926;-74
2023/05/03 10:47:25;;;;;;;;;;;;;;;18.36;47.70;102808.59;4938321;28;20390;-74
2023/05/03 10:50:09;;;;;;;;;;;;;;;18.13;47.16;102816.75;4933559;28;20446;-73
2023/05/03 10:52:34;;;;;;;;;;;;;;;18.79;47.94;102810.53;4936322;28;19926;-74
2023/05/03 10:55:00;;;;;;;;;;;;;;;17.63;45.56;102815.06;4933208;28;20385;-73
2023/05/03 10:57:28;;;;;;;;;;;;;;;17.73;46.13;102812.53;4934668;28;20351;-74
2023/05/03 10:59:53;;;;;;;;;;;;;;;18.63;47.39;102812.81;4932452;28;19922;-73
2023/05/03 11:02:18;;;;;;;;;;;;;;;17.71;47.03;102805.47;4932205;28;20633;-74
2023/05/03 11:04:44;;;;;;;;;;;;;;;18.97;48.66;102799.16;4935344;28;19930;-73
2023/05/03 11:07:18;;;;;;;;;;;;;;;18.99;43.67;102789.00;4929953;28;20331;-75
2023/05/03 11:09:43;;;;;;;;;;;;;;;18.56;43.59;102790.66;4937633;28;19927;-74
2023/05/03 11:12:08;;;;;;;;;;;;;;;19.15;45.97;102797.63;4935532;28;19922;-74
2023/05/03 11:14:34;;;;;;;;;;;;;;;19.51;41.24;102799.22;4933680;28;20056;-73
2023/05/03 11:16:59;;;;;;;;;;;;;;;19.49;40.70;102785.75;4937508;28;19973;-73
2023/05/03 11:19:25;;;;;;;;;;;;;;;19.16;41.01;102788.47;4928602;28;20013;-74
2023/05/03 11:21:51;;;;;;;;;;;;;;;19.44;41.31;102786.16;4933763;28;19961;-76
2023/05/03 11:24:16;;;;;;;;;;;;;;;19.08;42.61;102774.63;4928074;28;20313;-74
2023/05/03 11:26:41;;;;;;;;;;;;;;;18.42;42.67;102770.91;4936596;28;19942;-74
2023/05/03 11:29:11;;;;;;;;;;;;;;;19.12;45.38;102767.06;4938017;28;19974;-74
2023/05/03 11:31:37;;;;;;;;;;;;;;;19.67;42.64;102766.94;4929669;28;19927;-73
2023/05/03 11:34:02;;;;;;;;;;;;;;;19.49;41.02;102770.25;4933871;28;19923;-74
2023/05/03 11:36:29;;;;;;;;;;;;;;;19.75;41.44;102769.00;4939800;28;19923;-73
2023/05/03 11:38:54;;;;;;;;;;;;;;;19.40;40.24;102776.50;4932491;28;20300;-74
2023/05/03 11:41:20;;;;;;;;;;;;;;;19.92;40.18;102775.75;4935558;28;19923;-77
2023/05/03 11:43:48;;;;;;;;;;;;;;;20.07;39.02;102774.38;4934607;28;19977;-73
2023/05/03 11:46:17;;;;;;;;;;;;;;;19.64;38.48;102748.13;4937883;28;19922;-74
2023/05/03 11:48:42;;;;;;;;;;;;;;;19.03;42.00;102755.97;4944637;28;20277;-73
2023/05/03 11:51:10;;;;;;;;;;;;;;;19.68;39.66;102754.19;4931961;28;20536;-76
2023/05/03 11:53:36;;;;;;;;;;;;;;;19.65;38.68;102749.88;4935603;28;19956;-74
2023/05/03 11:56:02;;;;;;;;;;;;;;;19.30;41.09;102743.75;4932322;28;20279;-74
2023/05/03 11:58:27;;;;;;;;;;;;;;;19.78;42.54;102731.44;4928099;28;19981;-75
2023/05/03 12:00:53;;;;;;;;;;;;;;;20.32;39.85;102736.75;4932601;28;20504;-73
2023/05/03 12:03:19;;;;;;;;;;;;;;;20.64;40.06;102729.38;4933393;28;20734;-76
2023/05/03 12:05:44;;;;;;;;;;;;;;;21.90;38.25;102734.09;4937639;28;20293;-74
2023/05/03 12:08:10;;;;;;;;;;;;;;;21.80;38.10;102734.13;4936760;28;19923;-74
2023/05/03 12:10:36;;;;;;;;;;;;;;;19.38;39.63;102724.03;4934772;28;19961;-73
2023/05/03 12:13:01;;;;;;;;;;;;;;;20.97;38.47;102725.44;4930825;28;19923;-76
2023/05/03 12:15:30;;;;;;;;;;;;;;;21.08;39.22;102718.97;4932765;28;20037;-75
2023/05/03 12:17:56;;;;;;;;;;;;;;;21.52;36.38;102718.50;4940437;28;19973;-75
2023/05/03 12:20:21;;;;;;;;;;;;;;;21.62;38.76;102713.03;4932171;28;20486;-74
2023/05/03 12:22:47;;;;;;;;;;;;;;;21.40;35.41;102711.47;4945393;28;20343;-74
2023/05/03 12:25:13;;;;;;;;;;;;;;;21.30;34.26;102711.47;4941046;28;19923;-74
2023/05/03 12:27:38;;;;;;;;;;;;;;;21.37;34.91;102714.47;4935490;28;20429;-77